sensor_id;sensor_type;location;lat;lon;timestamp;temperature;humidity
42201;DHT22;27869;51.442;7.540;2024-03-23T00:53:24;7.60;99.90
42201;DHT22;27869;51.442;7.540;2024-03-23T00:55:51;7.60;99.90
42201;DHT22;27869;51.442;7.540;2024-03-23T00:58:17;7.60;99.90
42201;DHT22;27869;51.442;7.540;2024-03-23T01:00:44;7.60;99.90
42201;DHT22;27869;51.442;7.540;2024-03-23T01:03:09;7.60;99.90
42201;DHT22;27869;51.442;7.540;2024-03-23T01:05:36;7.50;99.90
42201;DHT22;27869;51.442;7.540;2024-03-23T01:08:02;7.50;99.90
42201;DHT22;27869;51.442;7.540;2024-03-23T01:10:31;7.50;99.90
42201;DHT22;27869;51.442;7.540;2024-03-23T01:12:59;7.50;99.90
42201;DHT22;27869;51.442;7.540;2024-03-23T01:15:26;7.50;99.90
42201;DHT22;27869;51.442;7.540;2024-03-23T01:17:52;7.50;99.90
42201;DHT22;27869;51.442;7.540;2024-03-23T01:20:19;7.40;99.90
42201;DHT22;27869;51.442;7.540;2024-03-23T01:22:45;7.40;99.90
42201;DHT22;27869;51.442;7.540;2024-03-23T01:25:12;7.40;99.90
42201;DHT22;27869;51.442;7.540;2024-03-23T01:27:39;7.30;99.90
42201;DHT22;27869;51.442;7.540;2024-03-23T01:30:07;7.30;99.90
42201;DHT22;27869;51.442;7.540;2024-03-23T01:32:33;7.20;99.90
42201;DHT22;27869;51.442;7.540;2024-03-23T01:35:00;7.20;99.90
42201;DHT22;27869;51.442;7.540;2024-03-23T01:37:26;7.20;99.90
42201;DHT22;27869;51.442;7.540;2024-03-23T01:39:53;7.20;99.90
42201;DHT22;27869;51.442;7.540;2024-03-23T01:42:19;7.20;99.90
42201;DHT22;27869;51.442;7.540;2024-03-23T01:44:47;7.20;99.90
42201;DHT22;27869;51.442;7.540;2024-03-23T01:47:13;7.30;99.90
42201;DHT22;27869;51.442;7.540;2024-03-23T01:49:40;7.20;99.90
42201;DHT22;27869;51.442;7.540;2024-03-23T01:52:07;7.20;99.90
42201;DHT22;27869;51.442;7.540;2024-03-23T01:54:34;7.20;99.90
42201;DHT22;27869;51.442;7.540;2024-03-23T01:57:01;7.20;99.90
42201;DHT22;27869;51.442;7.540;2024-03-23T01:59:28;7.20;99.90
42201;DHT22;27869;51.442;7.540;2024-03-23T02:01:55;7.10;99.90
42201;DHT22;27869;51.442;7.540;2024-03-23T02:04:22;7.10;99.90
42201;DHT22;27869;51.442;7.540;2024-03-23T02:06:48;7.00;99.90
42201;DHT22;27869;51.442;7.540;2024-03-23T02:09:15;7.00;99.90
42201;DHT22;27869;51.442;7.540;2024-03-23T02:11:41;7.00;99.90
42201;DHT22;27869;51.442;7.540;2024-03-23T02:14:08;6.90;99.90
42201;DHT22;27869;51.442;7.540;2024-03-23T02:16:34;6.90;99.90
42201;DHT22;27869;51.442;7.540;2024-03-23T02:19:02;6.80;99.90
42201;DHT22;27869;51.442;7.540;2024-03-23T02:21:28;6.80;99.90
42201;DHT22;27869;51.442;7.540;2024-03-23T02:23:59;6.80;99.90
42201;DHT22;27869;51.442;7.540;2024-03-23T02:26:25;6.80;99.90
42201;DHT22;27869;51.442;7.540;2024-03-23T02:28:52;6.80;99.90
42201;DHT22;27869;51.442;7.540;2024-03-23T02:31:18;6.80;99.90
42201;DHT22;27869;51.442;7.540;2024-03-23T02:33:45;6.70;99.90
42201;DHT22;27869;51.442;7.540;2024-03-23T02:36:11;6.70;99.90
42201;DHT22;27869;51.442;7.540;2024-03-23T02:38:37;6.70;99.90
42201;DHT22;27869;51.442;7.540;2024-03-23T02:41:05;6.60;99.90
42201;DHT22;27869;51.442;7.540;2024-03-23T02:43:32;6.60;99.90
42201;DHT22;27869;51.442;7.540;2024-03-23T02:45:58;6.60;99.90
42201;DHT22;27869;51.442;7.540;2024-03-23T02:48:26;6.60;99.90
42201;DHT22;27869;51.442;7.540;2024-03-23T02:50:52;6.60;99.90
42201;DHT22;27869;51.442;7.540;2024-03-23T02:53:19;6.60;99.90
42201;DHT22;27869;51.442;7.540;2024-03-23T02:55:45;6.60;99.90
42201;DHT22;27869;51.442;7.540;2024-03-23T02:58:14;6.60;99.90
42201;DHT22;27869;51.442;7.540;2024-03-23T03:00:39;6.60;99.90
42201;DHT22;27869;51.442;7.540;2024-03-23T03:03:06;6.60;99.90
42201;DHT22;27869;51.442;7.540;2024-03-23T03:05:32;6.60;99.90
42201;DHT22;27869;51.442;7.540;2024-03-23T03:07:59;6.50;99.90
42201;DHT22;27869;51.442;7.540;2024-03-23T03:10:25;6.60;99.90
42201;DHT22;27869;51.442;7.540;2024-03-23T03:12:52;6.50;99.90
42201;DHT22;27869;51.442;7.540;2024-03-23T03:15:19;6.50;99.90
42201;DHT22;27869;51.442;7.540;2024-03-23T03:17:46;6.50;99.90
42201;DHT22;27869;51.442;7.540;2024-03-23T03:20:12;6.40;99.90
42201;DHT22;27869;51.442;7.540;2024-03-23T03:22:41;6.40;99.90
42201;DHT22;27869;51.442;7.540;2024-03-23T03:25:07;6.40;99.90
42201;DHT22;27869;51.442;7.540;2024-03-23T03:27:34;6.40;99.90
42201;DHT22;27869;51.442;7.540;2024-03-23T03:30:00;6.30;99.90
42201;DHT22;27869;51.442;7.540;2024-03-23T03:32:29;6.30;99.90
42201;DHT22;27869;51.442;7.540;2024-03-23T03:34:55;6.30;99.90
42201;DHT22;27869;51.442;7.540;2024-03-23T03:37:22;6.40;99.90
42201;DHT22;27869;51.442;7.540;2024-03-23T03:39:48;6.40;99.90
42201;DHT22;27869;51.442;7.540;2024-03-23T03:42:15;6.40;99.90
42201;DHT22;27869;51.442;7.540;2024-03-23T03:44:41;6.40;99.90
42201;DHT22;27869;51.442;7.540;2024-03-23T03:47:08;6.40;99.90
42201;DHT22;27869;51.442;7.540;2024-03-23T03:49:35;6.40;99.90
42201;DHT22;27869;51.442;7.540;2024-03-23T03:52:02;6.40;99.90
42201;DHT22;27869;51.442;7.540;2024-03-23T03:54:28;6.40;99.90
42201;DHT22;27869;51.442;7.540;2024-03-23T03:56:55;6.40;99.90
42201;DHT22;27869;51.442;7.540;2024-03-23T03:59:21;6.40;99.90
42201;DHT22;27869;51.442;7.540;2024-03-23T04:01:47;6.40;99.90
42201;DHT22;27869;51.442;7.540;2024-03-23T04:04:13;6.40;99.90
42201;DHT22;27869;51.442;7.540;2024-03-23T04:06:43;6.40;99.90
42201;DHT22;27869;51.442;7.540;2024-03-23T04:09:09;6.40;99.90
42201;DHT22;27869;51.442;7.540;2024-03-23T04:11:36;6.30;99.90
42201;DHT22;27869;51.442;7.540;2024-03-23T04:14:02;6.30;99.90
42201;DHT22;27869;51.442;7.540;2024-03-23T04:16:34;6.30;99.90
42201;DHT22;27869;51.442;7.540;2024-03-23T04:19:00;6.30;99.90
42201;DHT22;27869;51.442;7.540;2024-03-23T04:21:27;6.20;99.90
42201;DHT22;27869;51.442;7.540;2024-03-23T04:23:54;6.20;99.90
42201;DHT22;27869;51.442;7.540;2024-03-23T04:26:21;6.20;99.90
42201;DHT22;27869;51.442;7.540;2024-03-23T04:28:47;6.20;99.90
42201;DHT22;27869;51.442;7.540;2024-03-23T04:31:14;6.20;99.90
42201;DHT22;27869;51.442;7.540;2024-03-23T04:33:40;6.20;99.90
42201;DHT22;27869;51.442;7.540;2024-03-23T04:36:07;6.20;99.90
42201;DHT22;27869;51.442;7.540;2024-03-23T04:38:33;6.20;99.90
42201;DHT22;27869;51.442;7.540;2024-03-23T04:41:02;6.20;99.90
42201;DHT22;27869;51.442;7.540;2024-03-23T04:43:29;6.20;99.90
42201;DHT22;27869;51.442;7.540;2024-03-23T04:45:56;6.20;99.90
42201;DHT22;27869;51.442;7.540;2024-03-23T04:48:23;6.20;99.90
42201;DHT22;27869;51.442;7.540;2024-03-23T04:50:54;6.20;99.90
42201;DHT22;27869;51.442;7.540;2024-03-23T04:53:23;6.20;99.90
42201;DHT22;27869;51.442;7.540;2024-03-23T04:55:53;6.20;99.90
42201;DHT22;27869;51.442;7.540;2024-03-23T04:58:21;6.20;99.90
42201;DHT22;27869;51.442;7.540;2024-03-23T05:00:48;6.20;99.90
42201;DHT22;27869;51.442;7.540;2024-03-23T05:03:18;6.20;99.90
42201;DHT22;27869;51.442;7.540;2024-03-23T05:05:46;6.20;99.90
42201;DHT22;27869;51.442;7.540;2024-03-23T05:08:12;6.10;99.90
42201;DHT22;27869;51.442;7.540;2024-03-23T05:10:39;6.10;99.90
42201;DHT22;27869;51.442;7.540;2024-03-23T05:13:06;6.10;99.90
42201;DHT22;27869;51.442;7.540;2024-03-23T05:15:34;6.10;99.90
42201;DHT22;27869;51.442;7.540;2024-03-23T05:18:00;6.00;99.90
42201;DHT22;27869;51.442;7.540;2024-03-23T05:20:27;6.00;99.90
42201;DHT22;27869;51.442;7.540;2024-03-23T05:22:54;6.00;99.90
42201;DHT22;27869;51.442;7.540;2024-03-23T05:25:22;6.00;99.90
42201;DHT22;27869;51.442;7.540;2024-03-23T05:27:48;6.00;99.90
42201;DHT22;27869;51.442;7.540;2024-03-23T05:30:15;6.00;99.90
42201;DHT22;27869;51.442;7.540;2024-03-23T05:32:42;6.00;99.90
42201;DHT22;27869;51.442;7.540;2024-03-23T05:35:10;6.00;99.90
42201;DHT22;27869;51.442;7.540;2024-03-23T05:37:37;6.00;99.90
42201;DHT22;27869;51.442;7.540;2024-03-23T05:40:04;5.90;99.90
42201;DHT22;27869;51.442;7.540;2024-03-23T05:42:30;5.90;99.90
42201;DHT22;27869;51.442;7.540;2024-03-23T05:44:58;5.90;99.90
42201;DHT22;27869;51.442;7.540;2024-03-23T05:47:23;5.90;99.90
42201;DHT22;27869;51.442;7.540;2024-03-23T05:49:52;5.90;99.90
42201;DHT22;27869;51.442;7.540;2024-03-23T05:52:18;5.90;99.90
42201;DHT22;27869;51.442;7.540;2024-03-23T05:54:46;5.90;99.90
42201;DHT22;27869;51.442;7.540;2024-03-23T05:57:12;5.90;99.90
42201;DHT22;27869;51.442;7.540;2024-03-23T05:59:39;5.80;99.90
42201;DHT22;27869;51.442;7.540;2024-03-23T06:02:05;5.90;99.90
42201;DHT22;27869;51.442;7.540;2024-03-23T06:04:32;5.80;99.90
42201;DHT22;27869;51.442;7.540;2024-03-23T06:07:00;5.80;99.90
42201;DHT22;27869;51.442;7.540;2024-03-23T06:09:27;5.80;99.90
42201;DHT22;27869;51.442;7.540;2024-03-23T06:11:53;5.80;99.90
42201;DHT22;27869;51.442;7.540;2024-03-23T06:14:19;5.80;99.90
42201;DHT22;27869;51.442;7.540;2024-03-23T06:16:46;5.70;99.90
42201;DHT22;27869;51.442;7.540;2024-03-23T06:19:13;5.70;99.90
42201;DHT22;27869;51.442;7.540;2024-03-23T06:21:43;5.70;99.90
42201;DHT22;27869;51.442;7.540;2024-03-23T06:24:11;5.70;99.90
42201;DHT22;27869;51.442;7.540;2024-03-23T06:26:37;5.70;99.90
42201;DHT22;27869;51.442;7.540;2024-03-23T06:29:04;5.70;99.90
42201;DHT22;27869;51.442;7.540;2024-03-23T06:31:30;5.60;99.90
42201;DHT22;27869;51.442;7.540;2024-03-23T06:33:57;5.60;99.90
42201;DHT22;27869;51.442;7.540;2024-03-23T06:36:23;5.60;99.90
42201;DHT22;27869;51.442;7.540;2024-03-23T06:38:50;5.70;99.90
42201;DHT22;27869;51.442;7.540;2024-03-23T06:41:18;5.70;99.90
42201;DHT22;27869;51.442;7.540;2024-03-23T06:43:45;5.70;99.90
42201;DHT22;27869;51.442;7.540;2024-03-23T06:46:11;5.70;99.90
42201;DHT22;27869;51.442;7.540;2024-03-23T06:48:38;5.70;99.90
42201;DHT22;27869;51.442;7.540;2024-03-23T06:51:04;5.70;99.90
42201;DHT22;27869;51.442;7.540;2024-03-23T06:53:32;5.70;99.90
42201;DHT22;27869;51.442;7.540;2024-03-23T06:55:58;5.70;99.90
42201;DHT22;27869;51.442;7.540;2024-03-23T06:58:27;5.80;99.90
42201;DHT22;27869;51.442;7.540;2024-03-23T07:00:53;5.70;99.90
42201;DHT22;27869;51.442;7.540;2024-03-23T07:03:20;5.70;99.90
42201;DHT22;27869;51.442;7.540;2024-03-23T07:05:47;5.80;99.90
42201;DHT22;27869;51.442;7.540;2024-03-23T07:08:14;5.80;99.90
42201;DHT22;27869;51.442;7.540;2024-03-23T07:10:46;5.80;99.90
42201;DHT22;27869;51.442;7.540;2024-03-23T07:13:13;5.80;99.90
42201;DHT22;27869;51.442;7.540;2024-03-23T07:15:40;5.80;99.90
42201;DHT22;27869;51.442;7.540;2024-03-23T07:18:07;5.90;99.90
42201;DHT22;27869;51.442;7.540;2024-03-23T07:20:33;5.90;99.90
42201;DHT22;27869;51.442;7.540;2024-03-23T07:23:00;5.90;99.90
42201;DHT22;27869;51.442;7.540;2024-03-23T07:25:26;5.90;99.90
42201;DHT22;27869;51.442;7.540;2024-03-23T07:27:54;5.90;99.90
42201;DHT22;27869;51.442;7.540;2024-03-23T07:30:20;5.90;99.90
42201;DHT22;27869;51.442;7.540;2024-03-23T07:32:48;6.00;99.90
42201;DHT22;27869;51.442;7.540;2024-03-23T07:35:14;6.00;99.90
42201;DHT22;27869;51.442;7.540;2024-03-23T07:37:42;6.00;99.90
42201;DHT22;27869;51.442;7.540;2024-03-23T07:40:08;6.10;99.90
42201;DHT22;27869;51.442;7.540;2024-03-23T07:42:36;6.10;99.90
42201;DHT22;27869;51.442;7.540;2024-03-23T07:45:01;6.20;99.90
42201;DHT22;27869;51.442;7.540;2024-03-23T07:47:28;6.20;99.90
42201;DHT22;27869;51.442;7.540;2024-03-23T07:49:56;6.20;99.90
42201;DHT22;27869;51.442;7.540;2024-03-23T07:52:23;6.30;99.90
42201;DHT22;27869;51.442;7.540;2024-03-23T07:54:49;6.40;99.90
42201;DHT22;27869;51.442;7.540;2024-03-23T07:57:18;6.40;99.90
42201;DHT22;27869;51.442;7.540;2024-03-23T07:59:44;6.50;99.90
42201;DHT22;27869;51.442;7.540;2024-03-23T08:02:11;6.60;99.90
42201;DHT22;27869;51.442;7.540;2024-03-23T08:04:37;6.60;99.90
42201;DHT22;27869;51.442;7.540;2024-03-23T08:07:06;6.70;99.90
42201;DHT22;27869;51.442;7.540;2024-03-23T08:09:31;6.80;99.90
42201;DHT22;27869;51.442;7.540;2024-03-23T08:11:58;6.80;99.90
42201;DHT22;27869;51.442;7.540;2024-03-23T08:14:24;6.90;99.90
42201;DHT22;27869;51.442;7.540;2024-03-23T08:16:51;6.90;99.90
42201;DHT22;27869;51.442;7.540;2024-03-23T08:19:17;7.00;99.90
42201;DHT22;27869;51.442;7.540;2024-03-23T08:21:44;7.00;99.90
42201;DHT22;27869;51.442;7.540;2024-03-23T08:24:11;7.10;99.90
42201;DHT22;27869;51.442;7.540;2024-03-23T08:26:38;7.10;99.90
42201;DHT22;27869;51.442;7.540;2024-03-23T08:29:05;7.20;99.90
42201;DHT22;27869;51.442;7.540;2024-03-23T08:31:32;7.20;99.90
42201;DHT22;27869;51.442;7.540;2024-03-23T08:33:58;7.40;99.90
42201;DHT22;27869;51.442;7.540;2024-03-23T08:36:25;7.40;99.90
42201;DHT22;27869;51.442;7.540;2024-03-23T08:38:51;7.50;99.90
42201;DHT22;27869;51.442;7.540;2024-03-23T08:41:20;7.50;99.90
42201;DHT22;27869;51.442;7.540;2024-03-23T08:43:46;7.50;99.90
42201;DHT22;27869;51.442;7.540;2024-03-23T08:46:14;7.50;99.90
42201;DHT22;27869;51.442;7.540;2024-03-23T08:48:41;7.50;99.90
42201;DHT22;27869;51.442;7.540;2024-03-23T08:51:10;7.50;99.90
42201;DHT22;27869;51.442;7.540;2024-03-23T08:53:37;7.50;99.90
42201;DHT22;27869;51.442;7.540;2024-03-23T08:56:05;7.60;99.90
42201;DHT22;27869;51.442;7.540;2024-03-23T08:58:34;7.60;99.90
42201;DHT22;27869;51.442;7.540;2024-03-23T09:01:04;7.60;99.90
42201;DHT22;27869;51.442;7.540;2024-03-23T09:03:30;7.60;99.90
42201;DHT22;27869;51.442;7.540;2024-03-23T09:05:57;7.70;99.90
42201;DHT22;27869;51.442;7.540;2024-03-23T09:08:24;7.70;99.90
42201;DHT22;27869;51.442;7.540;2024-03-23T09:10:52;7.90;99.90
42201;DHT22;27869;51.442;7.540;2024-03-23T09:13:18;8.00;99.90
42201;DHT22;27869;51.442;7.540;2024-03-23T09:15:50;8.10;99.90
42201;DHT22;27869;51.442;7.540;2024-03-23T09:18:17;8.30;99.90
42201;DHT22;27869;51.442;7.540;2024-03-23T09:20:44;8.30;99.90
42201;DHT22;27869;51.442;7.540;2024-03-23T09:23:10;8.40;99.90
42201;DHT22;27869;51.442;7.540;2024-03-23T09:25:37;8.50;99.90
42201;DHT22;27869;51.442;7.540;2024-03-23T09:28:04;8.50;99.90
42201;DHT22;27869;51.442;7.540;2024-03-23T09:30:32;8.50;99.90
42201;DHT22;27869;51.442;7.540;2024-03-23T09:33:00;8.40;99.90
42201;DHT22;27869;51.442;7.540;2024-03-23T09:35:27;8.40;99.90
42201;DHT22;27869;51.442;7.540;2024-03-23T09:37:53;8.30;99.90
42201;DHT22;27869;51.442;7.540;2024-03-23T09:40:20;8.20;99.90
42201;DHT22;27869;51.442;7.540;2024-03-23T09:42:50;8.10;99.90
42201;DHT22;27869;51.442;7.540;2024-03-23T09:45:20;7.90;99.90
42201;DHT22;27869;51.442;7.540;2024-03-23T09:47:47;7.70;99.90
42201;DHT22;27869;51.442;7.540;2024-03-23T09:50:15;7.70;99.90
42201;DHT22;27869;51.442;7.540;2024-03-23T09:52:41;7.60;99.90
42201;DHT22;27869;51.442;7.540;2024-03-23T09:55:08;7.60;99.90
42201;DHT22;27869;51.442;7.540;2024-03-23T09:57:35;7.50;99.90
42201;DHT22;27869;51.442;7.540;2024-03-23T10:00:02;7.40;99.90
42201;DHT22;27869;51.442;7.540;2024-03-23T10:02:28;7.40;99.90
42201;DHT22;27869;51.442;7.540;2024-03-23T10:04:55;7.30;99.90
42201;DHT22;27869;51.442;7.540;2024-03-23T10:07:25;7.30;99.90
42201;DHT22;27869;51.442;7.540;2024-03-23T10:09:53;7.40;99.90
42201;DHT22;27869;51.442;7.540;2024-03-23T10:12:20;7.40;99.90
42201;DHT22;27869;51.442;7.540;2024-03-23T10:14:47;7.50;99.90
42201;DHT22;27869;51.442;7.540;2024-03-23T10:17:14;7.50;99.90
42201;DHT22;27869;51.442;7.540;2024-03-23T10:19:43;7.60;99.90
42201;DHT22;27869;51.442;7.540;2024-03-23T10:22:12;7.70;99.90
42201;DHT22;27869;51.442;7.540;2024-03-23T10:24:41;7.80;99.90
42201;DHT22;27869;51.442;7.540;2024-03-23T10:27:07;8.00;99.90
42201;DHT22;27869;51.442;7.540;2024-03-23T10:29:34;8.00;99.90
42201;DHT22;27869;51.442;7.540;2024-03-23T10:32:09;8.10;99.90
42201;DHT22;27869;51.442;7.540;2024-03-23T10:34:37;8.30;99.90
42201;DHT22;27869;51.442;7.540;2024-03-23T10:37:04;8.40;99.90
42201;DHT22;27869;51.442;7.540;2024-03-23T10:39:32;8.50;99.90
42201;DHT22;27869;51.442;7.540;2024-03-23T10:42:02;8.60;99.90
42201;DHT22;27869;51.442;7.540;2024-03-23T10:44:29;8.60;99.90
42201;DHT22;27869;51.442;7.540;2024-03-23T10:46:57;8.60;99.90
42201;DHT22;27869;51.442;7.540;2024-03-23T10:49:26;8.70;99.90
42201;DHT22;27869;51.442;7.540;2024-03-23T10:51:55;8.70;99.90
42201;DHT22;27869;51.442;7.540;2024-03-23T10:54:24;8.80;99.90
42201;DHT22;27869;51.442;7.540;2024-03-23T10:56:55;8.80;99.90
42201;DHT22;27869;51.442;7.540;2024-03-23T10:59:25;8.90;99.90
42201;DHT22;27869;51.442;7.540;2024-03-23T11:01:55;8.90;99.90
42201;DHT22;27869;51.442;7.540;2024-03-23T11:04:32;8.90;99.90
42201;DHT22;27869;51.442;7.540;2024-03-23T11:06:58;9.00;99.90
42201;DHT22;27869;51.442;7.540;2024-03-23T11:09:44;9.00;99.90
42201;DHT22;27869;51.442;7.540;2024-03-23T11:12:27;9.00;99.90
42201;DHT22;27869;51.442;7.540;2024-03-23T11:15:01;9.00;99.90
42201;DHT22;27869;51.442;7.540;2024-03-23T11:17:28;9.10;99.90
42201;DHT22;27869;51.442;7.540;2024-03-23T11:19:56;9.10;99.90
42201;DHT22;27869;51.442;7.540;2024-03-23T11:22:38;9.10;99.90
42201;DHT22;27869;51.442;7.540;2024-03-23T11:25:15;9.10;99.90
42201;DHT22;27869;51.442;7.540;2024-03-23T11:27:42;8.70;99.90
42201;DHT22;27869;51.442;7.540;2024-03-23T11:30:13;8.00;99.90
42201;DHT22;27869;51.442;7.540;2024-03-23T11:32:39;7.30;99.90
42201;DHT22;27869;51.442;7.540;2024-03-23T11:35:07;6.60;99.90
42201;DHT22;27869;51.442;7.540;2024-03-23T11:37:33;6.20;99.90
42201;DHT22;27869;51.442;7.540;2024-03-23T11:40:00;6.00;99.90
42201;DHT22;27869;51.442;7.540;2024-03-23T11:42:27;5.90;99.90
42201;DHT22;27869;51.442;7.540;2024-03-23T11:44:54;5.90;99.90
42201;DHT22;27869;51.442;7.540;2024-03-23T11:47:21;6.00;99.90
42201;DHT22;27869;51.442;7.540;2024-03-23T11:49:49;6.10;99.90
42201;DHT22;27869;51.442;7.540;2024-03-23T11:52:16;6.20;99.90
42201;DHT22;27869;51.442;7.540;2024-03-23T11:54:43;6.40;99.90
42201;DHT22;27869;51.442;7.540;2024-03-23T11:57:09;6.50;99.90
42201;DHT22;27869;51.442;7.540;2024-03-23T11:59:37;6.70;99.90
42201;DHT22;27869;51.442;7.540;2024-03-23T12:02:07;6.80;99.90
42201;DHT22;27869;51.442;7.540;2024-03-23T12:04:35;6.90;99.90
42201;DHT22;27869;51.442;7.540;2024-03-23T12:07:12;7.00;99.90
42201;DHT22;27869;51.442;7.540;2024-03-23T12:09:39;7.10;99.90
42201;DHT22;27869;51.442;7.540;2024-03-23T12:12:08;7.10;99.90
42201;DHT22;27869;51.442;7.540;2024-03-23T12:14:35;7.10;99.90
42201;DHT22;27869;51.442;7.540;2024-03-23T12:17:10;7.20;99.90
42201;DHT22;27869;51.442;7.540;2024-03-23T12:19:39;7.30;99.90
42201;DHT22;27869;51.442;7.540;2024-03-23T12:22:07;7.30;99.90
42201;DHT22;27869;51.442;7.540;2024-03-23T12:24:34;7.40;99.90
42201;DHT22;27869;51.442;7.540;2024-03-23T12:27:01;7.50;99.90
42201;DHT22;27869;51.442;7.540;2024-03-23T12:29:29;7.50;99.90
42201;DHT22;27869;51.442;7.540;2024-03-23T12:31:55;7.70;99.90
42201;DHT22;27869;51.442;7.540;2024-03-23T12:34:22;7.70;99.90
42201;DHT22;27869;51.442;7.540;2024-03-23T12:36:49;7.80;99.90
42201;DHT22;27869;51.442;7.540;2024-03-23T12:39:16;7.90;99.90
42201;DHT22;27869;51.442;7.540;2024-03-23T12:41:42;8.00;99.90
42201;DHT22;27869;51.442;7.540;2024-03-23T12:44:09;8.00;99.90
42201;DHT22;27869;51.442;7.540;2024-03-23T12:46:37;8.00;99.90
42201;DHT22;27869;51.442;7.540;2024-03-23T12:49:04;8.00;99.90
42201;DHT22;27869;51.442;7.540;2024-03-23T12:51:31;8.10;99.90
42201;DHT22;27869;51.442;7.540;2024-03-23T12:53:59;8.10;99.90
42201;DHT22;27869;51.442;7.540;2024-03-23T12:56:25;8.10;99.90
42201;DHT22;27869;51.442;7.540;2024-03-23T12:58:53;8.10;99.90
42201;DHT22;27869;51.442;7.540;2024-03-23T13:01:20;8.00;99.90
42201;DHT22;27869;51.442;7.540;2024-03-23T13:03:48;7.90;99.90
42201;DHT22;27869;51.442;7.540;2024-03-23T13:06:14;7.90;99.90
42201;DHT22;27869;51.442;7.540;2024-03-23T13:08:41;7.80;99.90
42201;DHT22;27869;51.442;7.540;2024-03-23T13:11:10;7.80;99.90
42201;DHT22;27869;51.442;7.540;2024-03-23T13:13:37;7.90;99.90
42201;DHT22;27869;51.442;7.540;2024-03-23T13:16:03;7.80;99.90
42201;DHT22;27869;51.442;7.540;2024-03-23T13:18:31;7.90;99.90
42201;DHT22;27869;51.442;7.540;2024-03-23T13:20:57;7.90;99.90
42201;DHT22;27869;51.442;7.540;2024-03-23T13:23:24;7.90;99.90
42201;DHT22;27869;51.442;7.540;2024-03-23T13:25:50;7.90;99.90
42201;DHT22;27869;51.442;7.540;2024-03-23T13:28:19;8.00;99.90
42201;DHT22;27869;51.442;7.540;2024-03-23T13:30:52;8.00;99.90
42201;DHT22;27869;51.442;7.540;2024-03-23T13:33:19;8.00;99.90
42201;DHT22;27869;51.442;7.540;2024-03-23T13:35:51;8.10;99.90
42201;DHT22;27869;51.442;7.540;2024-03-23T13:38:19;8.10;99.90
42201;DHT22;27869;51.442;7.540;2024-03-23T13:40:52;8.20;99.90
42201;DHT22;27869;51.442;7.540;2024-03-23T13:43:21;8.10;99.90
42201;DHT22;27869;51.442;7.540;2024-03-23T13:45:47;8.00;99.90
42201;DHT22;27869;51.442;7.540;2024-03-23T13:48:16;7.90;99.90
42201;DHT22;27869;51.442;7.540;2024-03-23T13:50:42;7.70;99.90
42201;DHT22;27869;51.442;7.540;2024-03-23T13:53:09;7.70;99.90
42201;DHT22;27869;51.442;7.540;2024-03-23T13:55:35;7.50;99.90
42201;DHT22;27869;51.442;7.540;2024-03-23T13:58:02;7.50;99.90
42201;DHT22;27869;51.442;7.540;2024-03-23T14:00:29;7.60;99.90
42201;DHT22;27869;51.442;7.540;2024-03-23T14:02:58;7.70;99.90
42201;DHT22;27869;51.442;7.540;2024-03-23T14:05:24;7.70;99.90
42201;DHT22;27869;51.442;7.540;2024-03-23T14:07:50;7.80;99.90
42201;DHT22;27869;51.442;7.540;2024-03-23T14:10:16;7.80;99.90
42201;DHT22;27869;51.442;7.540;2024-03-23T14:12:43;7.90;99.90
42201;DHT22;27869;51.442;7.540;2024-03-23T14:15:09;7.90;99.90
42201;DHT22;27869;51.442;7.540;2024-03-23T14:17:38;8.00;99.90
42201;DHT22;27869;51.442;7.540;2024-03-23T14:20:05;7.90;99.90
42201;DHT22;27869;51.442;7.540;2024-03-23T14:22:34;7.90;99.90
42201;DHT22;27869;51.442;7.540;2024-03-23T14:25:00;7.90;99.90
42201;DHT22;27869;51.442;7.540;2024-03-23T14:27:27;7.90;99.90
42201;DHT22;27869;51.442;7.540;2024-03-23T14:29:53;8.00;99.90
42201;DHT22;27869;51.442;7.540;2024-03-23T14:32:22;8.00;99.90
42201;DHT22;27869;51.442;7.540;2024-03-23T14:34:49;8.00;99.90
42201;DHT22;27869;51.442;7.540;2024-03-23T14:37:17;8.00;99.90
42201;DHT22;27869;51.442;7.540;2024-03-23T14:39:43;8.10;99.90
42201;DHT22;27869;51.442;7.540;2024-03-23T14:42:11;8.10;99.90
42201;DHT22;27869;51.442;7.540;2024-03-23T14:44:37;8.10;99.90
42201;DHT22;27869;51.442;7.540;2024-03-23T14:47:04;8.20;99.90
42201;DHT22;27869;51.442;7.540;2024-03-23T14:49:31;8.20;99.90
42201;DHT22;27869;51.442;7.540;2024-03-23T14:52:00;8.20;99.90
42201;DHT22;27869;51.442;7.540;2024-03-23T14:54:25;8.30;99.90
42201;DHT22;27869;51.442;7.540;2024-03-23T14:56:52;8.30;99.90
42201;DHT22;27869;51.442;7.540;2024-03-23T14:59:18;8.30;99.90
42201;DHT22;27869;51.442;7.540;2024-03-23T15:01:46;8.20;99.90
42201;DHT22;27869;51.442;7.540;2024-03-23T15:04:12;8.20;99.90
42201;DHT22;27869;51.442;7.540;2024-03-23T15:06:42;8.20;99.90
42201;DHT22;27869;51.442;7.540;2024-03-23T15:09:09;8.20;99.90
42201;DHT22;27869;51.442;7.540;2024-03-23T15:11:37;8.10;99.90
42201;DHT22;27869;51.442;7.540;2024-03-23T15:14:03;8.20;99.90
42201;DHT22;27869;51.442;7.540;2024-03-23T15:16:30;8.20;99.90
42201;DHT22;27869;51.442;7.540;2024-03-23T15:18:56;8.20;99.90
42201;DHT22;27869;51.442;7.540;2024-03-23T15:21:23;8.30;99.90
42201;DHT22;27869;51.442;7.540;2024-03-23T15:23:49;8.30;99.90
42201;DHT22;27869;51.442;7.540;2024-03-23T15:26:17;8.40;99.90
42201;DHT22;27869;51.442;7.540;2024-03-23T15:28:43;8.50;99.90
42201;DHT22;27869;51.442;7.540;2024-03-23T15:31:33;8.40;99.90
42201;DHT22;27869;51.442;7.540;2024-03-23T15:33:59;8.40;99.90
42201;DHT22;27869;51.442;7.540;2024-03-23T15:36:26;8.40;99.90
42201;DHT22;27869;51.442;7.540;2024-03-23T15:38:52;8.40;99.90
42201;DHT22;27869;51.442;7.540;2024-03-23T15:41:21;8.30;99.90
42201;DHT22;27869;51.442;7.540;2024-03-23T15:43:49;8.30;99.90
42201;DHT22;27869;51.442;7.540;2024-03-23T15:46:16;8.30;99.90
42201;DHT22;27869;51.442;7.540;2024-03-23T15:48:43;8.20;99.90
42201;DHT22;27869;51.442;7.540;2024-03-23T15:51:12;8.10;99.90
42201;DHT22;27869;51.442;7.540;2024-03-23T15:53:38;8.10;99.90
42201;DHT22;27869;51.442;7.540;2024-03-23T15:56:06;8.00;99.90
42201;DHT22;27869;51.442;7.540;2024-03-23T15:58:33;8.00;99.90
42201;DHT22;27869;51.442;7.540;2024-03-23T16:01:02;8.00;99.90
42201;DHT22;27869;51.442;7.540;2024-03-23T16:03:29;8.00;99.90
42201;DHT22;27869;51.442;7.540;2024-03-23T16:05:58;8.00;99.90
42201;DHT22;27869;51.442;7.540;2024-03-23T16:08:25;8.10;99.90
42201;DHT22;27869;51.442;7.540;2024-03-23T16:10:52;8.10;99.90
42201;DHT22;27869;51.442;7.540;2024-03-23T16:13:19;8.20;99.90
42201;DHT22;27869;51.442;7.540;2024-03-23T16:15:54;8.20;99.90
42201;DHT22;27869;51.442;7.540;2024-03-23T16:18:20;8.30;99.90
42201;DHT22;27869;51.442;7.540;2024-03-23T16:20:52;8.20;99.90
42201;DHT22;27869;51.442;7.540;2024-03-23T16:23:18;8.20;99.90
42201;DHT22;27869;51.442;7.540;2024-03-23T16:25:47;8.20;99.90
42201;DHT22;27869;51.442;7.540;2024-03-23T16:28:15;8.20;99.90
42201;DHT22;27869;51.442;7.540;2024-03-23T16:30:42;8.20;99.90
42201;DHT22;27869;51.442;7.540;2024-03-23T16:33:09;8.20;99.90
42201;DHT22;27869;51.442;7.540;2024-03-23T16:35:36;8.20;99.90
42201;DHT22;27869;51.442;7.540;2024-03-23T16:38:02;8.10;99.90